Campiña-No se requiere un especial cuidado respecto a la situación meteorológica.   -   No hay avisos

Informes METAR

 

LEZL - Sevilla, Spain
Distancia de la estación: ENE 8km
Actualización: 25/05/2019 13:00
Despejado
Despejado
 Viento de E
Viento: E 4 km/h
Temperatura: 28°C
Rocío: 10°C
Humedad: 32%
Barómetro: 1015 hPa
Resumen: Despejado
Visibilidad: mayor de 10 km
2019/05/25 11:00 LEZL 251100Z 08002KT CAVOK 28/10 Q1015 NOSIG
LEMO - Morón, Spain
Distancia de la estación: SE 43km
Actualización: 25/05/2019 13:00
Despejado
Despejado
 Viento de NE
Viento: NE 17 km/h
Temperatura: 27°C
Rocío: 8°C
Humedad: 30%
Barómetro: 1016 hPa
Resumen: Despejado
Visibilidad: mayor de 10 km
2019/05/25 11:00 LEMO 251100Z 04009KT 360V090 CAVOK 27/08 Q1016 NOSIG
LEJR - Jeréz, Spain
Distancia de la estación: S 71km
Actualización: 25/05/2019 13:00
Poco nuboso
Poco nuboso
 Viento de variable
Viento: variable 6 km/h
Temperatura: 26°C
Rocío: 14°C
Humedad: 48%
Barómetro: 1016 hPa
Nubes: Poco nuboso
Visibilidad: 10 km
Detalles de las nubes: Poco nuboso 1067 m
2019/05/25 11:00 LEJR 251100Z VRB03KT 9999 FEW035 26/14 Q1016
 
LERT - Rota, Spain
Distancia de la estación: SSO 89km
Actualización: 25/05/2019 13:00
Poco nuboso
Poco nuboso
 Viento de variable
Viento: variable 9 km/h
Temperatura: 25°C
Rocío: 14°C
Humedad: 51%
Barómetro: 1016 hPa
Nubes: Poco nuboso
Visibilidad: 10 km
Detalles de las nubes: Poco nuboso 1219 m
2019/05/25 11:00 LERT 251100Z VRB05KT 9999 FEW040 25/14 Q1016 NOSIG
LEMG - Málaga, Spain
Distancia de la estación: ESE 157km
Actualización: 25/05/2019 13:00
Poco nuboso
Poco nuboso
 Viento de SE
Viento: SE 19 km/h
Temperatura: 23°C
Rocío: 12°C
Humedad: 50%
Barómetro: 1017 hPa
Nubes: Poco nuboso
Visibilidad: 10 km
Detalles de las nubes: Poco nuboso 914 m
2019/05/25 11:00 LEMG 251100Z 13010KT 080V170 9999 FEW030 23/12 Q1017 NOSIG
LEBA - Córdoba, Spain
Distancia de la estación: ENE 115km
Actualización: 25/05/2019 13:00
Poco nuboso
Poco nuboso
 Viento de E
Viento: E 24 km/h
Temperatura: 27°C
Rocío: 7°C
Humedad: 28%
Barómetro: 1016 hPa
Nubes: Poco nuboso
Visibilidad: 10 km
Detalles de las nubes: Poco nuboso 1494 m
2019/05/25 11:00 LEBA 251100Z 08013KT 9999 FEW049 27/07 Q1016
 
LEGR - Granada, Spain
Distancia de la estación: E 198km
Actualización: 25/05/2019 13:00
Poco nuboso
Poco nuboso
 Viento de variable
Viento: variable 7 km/h
Temperatura: 24°C
Rocío: 5°C
Humedad: 29%
Barómetro: 1016 hPa
Nubes: Poco nuboso
Visibilidad: 10 km
Detalles de las nubes: Poco nuboso 2134 m
2019/05/25 11:00 LEGR 251100Z VRB04KT 9999 FEW070 24/05 Q1016
LEAM - Almería, Spain
Distancia de la estación: E 326km
Actualización: 25/05/2019 13:00
Poco nuboso
Poco nuboso
 Viento de S
Viento: S 17 km/h
Temperatura: 22°C
Rocío: 14°C
Humedad: 61%
Barómetro: 1016 hPa
Nubes: Poco nuboso
Visibilidad: 10 km
Detalles de las nubes: Poco nuboso 2134 m
2019/05/25 11:00 LEAM 251100Z 19009KT 160V230 9999 FEW070 22/14 Q1016
LEMD - Madrid/Barajas, Spain
Distancia de la estación: NNE 402km
Actualización: 25/05/2019 13:00
Poco nuboso
Poco nuboso
 Viento de NNE
Viento: NNE 13 km/h
Temperatura: 20°C
Rocío: 5°C
Humedad: 38%
Barómetro: 1020 hPa
Nubes: Poco nuboso
Visibilidad: 10 km
Detalles de las nubes: Poco nuboso 1768 m
2019/05/25 11:00 LEMD 251100Z 02007KT 330V120 9999 FEW058 20/05 Q1020 NOSIG
 
LEVD - Valladolid, Spain
Distancia de la estación: N 492km
Actualización: 25/05/2019 13:00
Muy nuboso
Muy nuboso
 Viento de E
Viento: E 20 km/h
Temperatura: 17°C
Rocío: 5°C
Humedad: 45%
Barómetro: 1023 hPa
Nubes: Muy nuboso
Visibilidad: 10 km
Detalles de las nubes: Muy nuboso 1250 m
2019/05/25 11:00 LEVD 251100Z 08011KT 030V120 9999 BKN041 17/05 Q1023
LEBL - Barcelona, Spain
Distancia de la estación: NE 816km
Actualización: 25/05/2019 13:00
Lluvia débil, Poco nuboso
Lluvia débil, Poco nuboso
 Viento de NO
Viento: NO 17 km/h
Temperatura: 19°C
Rocío: 15°C
Humedad: 78%
Barómetro: 1016 hPa
Resumen: Lluvia débil
Nubes: Poco nuboso
Visibilidad: 10 km
Detalles de las nubes: Poco nuboso 457 m
2019/05/25 11:00 LEBL 251100Z 32009KT 290V350 9999 -RA FEW015 19/15 Q1016 NOSIG
LEVC - Valencia, Spain
Distancia de la estación: ENE 535km
Actualización: 25/05/2019 13:00
Poco nuboso
Poco nuboso
 Viento de SE
Viento: SE 7 km/h
Temperatura: 20°C
Rocío: 13°C
Humedad: 64%
Barómetro: 1017 hPa
Nubes: Poco nuboso
Visibilidad: 10 km
Detalles de las nubes: Poco nuboso 914 m
2019/05/25 11:00 LEVC 251100Z 14004KT 100V190 9999 FEW030 20/13 Q1017 NOSIG